Time;durP1;ratioP1;P1;durP2;ratioP2;P2;SDS_P1;SDS_P2;PMS_P1;PMS_P2;Temp;Humidity;BMP_temperature;BMP_pressure;BME280_temperature;BME280_humidity;BME280_pressure;Samples;Min_cycle;Max_cycle;Signal;HPM_P1;HPM_P2
2024/01/23 00:00:46;;;;;;;37.35;5.00;;;;;;;5.86;100.00;101729.31;5092671;28;20383;-81
2024/01/23 00:03:11;;;;;;;38.22;4.88;;;;;;;5.89;100.00;101715.94;5092533;28;20468;-79
2024/01/23 00:05:36;;;;;;;35.72;5.88;;;;;;;5.89;100.00;101721.22;5092419;28;20059;-80
2024/01/23 00:08:03;;;;;;;35.40;6.00;;;;;;;5.83;100.00;101730.34;5093071;28;20093;-79
2024/01/23 00:10:29;;;;;;;24.42;3.97;;;;;;;5.81;100.00;101746.28;5092462;28;20067;-80
2024/01/23 00:12:54;;;;;;;24.42;4.07;;;;;;;5.79;100.00;101771.94;5092736;28;20440;-81
2024/01/23 00:15:20;;;;;;;25.75;4.55;;;;;;;5.81;100.00;101751.56;5093075;28;20467;-80
2024/01/23 00:17:45;;;;;;;20.35;4.15;;;;;;;5.94;100.00;101748.22;5092844;28;20040;-79
2024/01/23 00:20:11;;;;;;;40.60;4.60;;;;;;;5.91;100.00;101740.47;5092536;28;20077;-79
2024/01/23 00:22:36;;;;;;;26.88;3.70;;;;;;;5.86;100.00;101746.00;5092239;28;20033;-80
2024/01/23 00:25:02;;;;;;;21.00;3.17;;;;;;;5.76;100.00;101743.06;5092248;28;20472;-80
2024/01/23 00:27:27;;;;;;;30.65;4.30;;;;;;;5.76;100.00;101755.38;5095447;28;20064;-79
2024/01/23 00:29:53;;;;;;;23.95;3.63;;;;;;;5.87;100.00;101758.28;5079131;28;20072;-77
2024/01/23 00:32:19;;;;;;;18.52;3.05;;;;;;;6.02;100.00;101764.53;5096864;28;20047;-79
2024/01/23 00:34:44;;;;;;;23.45;3.10;;;;;;;6.09;100.00;101765.00;5078825;28;20115;-80
2024/01/23 00:37:09;;;;;;;23.83;4.28;;;;;;;6.08;100.00;101777.38;5096474;28;20032;-79
2024/01/23 00:39:38;;;;;;;13.73;2.88;;;;;;;6.03;100.00;101786.50;5096315;28;20489;-80
2024/01/23 00:42:07;;;;;;;21.15;3.10;;;;;;;6.00;100.00;101783.09;5096761;28;20036;-80
2024/01/23 00:44:32;;;;;;;25.27;3.58;;;;;;;5.94;100.00;101791.34;5096188;28;20413;-83
2024/01/23 00:46:58;;;;;;;24.33;5.15;;;;;;;5.93;100.00;101796.72;5078195;28;20039;-82
2024/01/23 00:49:23;;;;;;;32.83;4.57;;;;;;;5.94;100.00;101793.13;5096185;28;20032;-81
2024/01/23 00:51:49;;;;;;;23.13;3.42;;;;;;;5.89;100.00;101788.09;5096225;28;20432;-81
2024/01/23 00:54:14;;;;;;;24.02;3.88;;;;;;;5.86;100.00;101790.91;5077969;28;20035;-80
2024/01/23 00:56:41;;;;;;;16.90;3.28;;;;;;;5.90;100.00;101796.91;5095801;28;20119;-79
2024/01/23 00:59:09;;;;;;;28.83;3.60;;;;;;;5.93;100.00;101791.44;5095920;28;20035;-80
2024/01/23 01:01:35;;;;;;;19.88;3.22;;;;;;;5.85;100.00;101818.25;5095984;28;20039;-79
2024/01/23 01:04:00;;;;;;;21.30;4.00;;;;;;;5.81;100.00;101817.59;5095444;28;20036;-80
2024/01/23 01:06:26;;;;;;;24.73;3.20;;;;;;;5.81;100.00;101814.09;5095233;28;20404;-81
2024/01/23 01:08:52;;;;;;;26.98;3.92;;;;;;;5.76;100.00;101811.72;5095974;28;20067;-80
2024/01/23 01:11:17;;;;;;;22.65;3.92;;;;;;;5.77;100.00;101831.03;5097793;28;20047;-79
2024/01/23 01:13:43;;;;;;;29.90;4.68;;;;;;;5.72;100.00;101846.28;5097337;28;20039;-80
2024/01/23 01:16:08;;;;;;;21.70;3.47;;;;;;;5.74;100.00;101844.41;5079577;28;20042;-79
2024/01/23 01:18:36;;;;;;;17.45;2.70;;;;;;;5.67;100.00;101853.59;5078441;28;20036;-79
2024/01/23 01:21:02;;;;;;;28.92;3.67;;;;;;;5.70;100.00;101856.91;5095788;28;20038;-79
2024/01/23 01:23:28;;;;;;;30.52;4.15;;;;;;;5.63;100.00;101852.94;5094827;28;20464;-80
2024/01/23 01:25:53;;;;;;;22.52;3.60;;;;;;;5.72;100.00;101856.84;5076951;28;20036;-79
2024/01/23 01:28:19;;;;;;;31.05;4.13;;;;;;;5.63;100.00;101859.03;5095300;28;20439;-79
2024/01/23 01:30:45;;;;;;;24.38;4.03;;;;;;;5.64;100.00;101867.81;5095258;28;20093;-82
2024/01/23 01:33:10;;;;;;;26.70;3.95;;;;;;;5.62;100.00;101865.25;5095052;28;20089;-81
2024/01/23 01:35:36;;;;;;;29.02;5.07;;;;;;;5.56;100.00;101868.22;5076728;28;20427;-79
2024/01/23 01:38:01;;;;;;;28.95;3.97;;;;;;;5.54;100.00;101861.31;5094537;28;20028;-80
2024/01/23 01:40:26;;;;;;;29.65;4.75;;;;;;;5.48;100.00;101870.44;5094513;28;20028;-79
2024/01/23 01:42:52;;;;;;;21.80;3.92;;;;;;;5.50;100.00;101873.00;5076867;28;20049;-80
2024/01/23 01:45:18;;;;;;;21.52;3.92;;;;;;;5.50;100.00;101876.47;5094906;28;20444;-80
2024/01/23 01:47:43;;;;;;;32.42;4.90;;;;;;;5.49;100.00;101882.69;5094971;28;20055;-80
2024/01/23 01:50:09;;;;;;;18.88;4.38;;;;;;;5.43;100.00;101883.00;5076800;28;20098;-80
2024/01/23 01:52:38;;;;;;;26.42;3.72;;;;;;;5.34;100.00;101888.75;5094703;28;20310;-79
2024/01/23 01:55:05;;;;;;;28.63;4.35;;;;;;;5.29;100.00;101895.13;5094613;28;20028;-79
2024/01/23 01:57:33;;;;;;;23.33;4.43;;;;;;;5.36;100.00;101902.72;5095052;28;20140;-80
2024/01/23 01:59:59;;;;;;;30.25;4.43;;;;;;;5.34;100.00;101897.53;5094851;28;20024;-80
2024/01/23 02:02:25;;;;;;;27.67;4.20;;;;;;;5.36;100.00;101906.25;5077258;28;20035;-80
2024/01/23 02:04:51;;;;;;;26.45;3.95;;;;;;;5.36;100.00;101908.88;5095500;28;20044;-80
2024/01/23 02:07:17;;;;;;;22.17;4.57;;;;;;;5.32;100.00;101923.16;5077092;28;20357;-80
2024/01/23 02:09:42;;;;;;;33.42;3.80;;;;;;;5.36;100.00;101932.63;5094716;28;20032;-78
2024/01/23 02:12:08;;;;;;;38.08;5.05;;;;;;;5.39;100.00;101934.22;5094506;28;20024;-80
2024/01/23 02:14:34;;;;;;;24.52;3.92;;;;;;;5.41;100.00;101943.78;5094037;28;20093;-80
2024/01/23 02:16:59;;;;;;;26.73;3.88;;;;;;;5.44;100.00;101948.91;5076585;28;20472;-80
2024/01/23 02:19:27;;;;;;;37.70;4.05;;;;;;;5.42;100.00;101950.78;5094612;28;20474;-80
2024/01/23 02:21:54;;;;;;;23.30;3.80;;;;;;;5.43;100.00;101957.78;5076026;28;20491;-82
2024/01/23 02:24:19;;;;;;;25.00;4.63;;;;;;;5.38;100.00;101956.31;5094382;28;20059;-79
2024/01/23 02:26:45;;;;;;;27.15;3.88;;;;;;;5.37;100.00;101970.41;5075700;28;20028;-80
2024/01/23 02:29:11;;;;;;;25.65;4.15;;;;;;;5.42;100.00;101982.47;5075703;28;20036;-80
2024/01/23 02:31:37;;;;;;;20.70;4.20;;;;;;;5.45;100.00;101977.03;5093747;28;20024;-82
2024/01/23 02:34:02;;;;;;;38.15;4.00;;;;;;;5.42;100.00;101984.22;5093867;28;20111;-80
2024/01/23 02:36:28;;;;;;;35.65;4.60;;;;;;;5.39;100.00;101989.66;5093971;28;20035;-79
2024/01/23 02:38:53;;;;;;;27.90;4.00;;;;;;;5.39;100.00;101987.03;5093877;28;20028;-81
2024/01/23 02:41:18;;;;;;;40.60;4.05;;;;;;;5.37;100.00;101987.09;5093626;28;20024;-80
2024/01/23 02:43:44;;;;;;;16.85;3.25;;;;;;;5.37;100.00;101989.75;5093913;28;20050;-78
2024/01/23 02:46:09;;;;;;;20.13;4.85;;;;;;;5.32;100.00;101990.94;5093417;28;20040;-80
2024/01/23 02:48:34;;;;;;;27.35;3.97;;;;;;;5.30;100.00;101985.72;5074342;28;20068;-78
2024/01/23 02:51:00;;;;;;;35.70;4.97;;;;;;;5.30;100.00;101993.66;5093777;28;20040;-80
2024/01/23 02:53:25;;;;;;;29.50;4.68;;;;;;;5.27;100.00;101999.91;5093965;28;20115;-80
2024/01/23 02:55:50;;;;;;;25.75;4.10;;;;;;;5.20;100.00;102005.59;5093392;28;20035;-80
2024/01/23 02:58:17;;;;;;;20.98;3.35;;;;;;;5.15;100.00;102011.09;5075296;28;20036;-79
2024/01/23 03:00:43;;;;;;;32.60;5.65;;;;;;;5.07;100.00;102011.44;5075165;28;20032;-79
2024/01/23 03:03:09;;;;;;;34.17;5.03;;;;;;;5.03;100.00;102022.22;5093968;28;20038;-79
2024/01/23 03:05:34;;;;;;;30.15;4.43;;;;;;;5.01;100.00;102026.72;5093854;28;20040;-79
2024/01/23 03:08:00;;;;;;;32.28;4.78;;;;;;;4.99;100.00;102016.25;5058812;28;20081;-79
2024/01/23 03:10:25;;;;;;;29.77;4.68;;;;;;;4.98;100.00;102034.78;5093078;28;20111;-81
2024/01/23 03:12:52;;;;;;;23.17;3.65;;;;;;;4.94;100.00;102036.69;5093288;28;20027;-81
2024/01/23 03:15:17;;;;;;;26.13;4.40;;;;;;;4.98;100.00;102050.63;5093080;28;20046;-81
2024/01/23 03:17:43;;;;;;;29.98;3.55;;;;;;;5.02;100.00;102044.28;5092664;28;20031;-80
2024/01/23 03:20:09;;;;;;;28.70;4.90;;;;;;;5.00;100.00;102049.63;5093553;28;20093;-80
2024/01/23 03:22:34;;;;;;;20.23;3.53;;;;;;;5.00;100.00;102051.38;5075191;28;20039;-79
2024/01/23 03:25:00;;;;;;;28.63;3.95;;;;;;;4.97;100.00;102062.09;5092917;28;20392;-79
2024/01/23 03:27:25;;;;;;;30.38;4.00;;;;;;;5.00;100.00;102072.50;5074567;28;20036;-80
2024/01/23 03:29:52;;;;;;;22.88;3.15;;;;;;;5.01;100.00;102067.13;5074712;28;20054;-80
2024/01/23 03:32:18;;;;;;;28.05;4.53;;;;;;;5.08;100.00;102078.28;5092999;28;20025;-80
2024/01/23 03:34:43;;;;;;;24.48;3.50;;;;;;;5.06;100.00;102078.34;5092821;28;20042;-79
2024/01/23 03:37:09;;;;;;;21.70;3.42;;;;;;;5.06;100.00;102093.28;5092828;28;20028;-79
2024/01/23 03:39:35;;;;;;;22.35;4.85;;;;;;;5.07;100.00;102093.22;5093069;28;20042;-81
2024/01/23 03:42:02;;;;;;;17.65;3.42;;;;;;;5.05;100.00;102096.88;5092745;28;20039;-80
2024/01/23 03:44:28;;;;;;;30.20;3.97;;;;;;;5.03;100.00;102106.63;5092607;28;20485;-79
2024/01/23 03:46:55;;;;;;;30.27;4.20;;;;;;;4.94;100.00;102110.56;5092381;28;20435;-79
2024/01/23 03:49:22;;;;;;;25.05;3.58;;;;;;;4.98;100.00;102117.41;5092886;28;20093;-80
2024/01/23 03:51:48;;;;;;;25.33;4.38;;;;;;;4.97;100.00;102117.47;5092664;28;20094;-80
2024/01/23 03:54:14;;;;;;;35.63;4.93;;;;;;;5.06;100.00;102130.22;5092716;28;20093;-79
2024/01/23 03:56:39;;;;;;;24.52;3.72;;;;;;;5.05;100.00;102145.22;5093843;28;20314;-79
2024/01/23 03:59:04;;;;;;;35.65;4.13;;;;;;;5.08;100.00;102142.44;5093680;28;20373;-81
2024/01/23 04:01:30;;;;;;;26.10;3.88;;;;;;;5.05;100.00;102157.56;5094810;28;20044;-78
2024/01/23 04:03:55;;;;;;;21.02;3.65;;;;;;;4.99;100.00;102161.34;5094013;28;20120;-79
2024/01/23 04:06:21;;;;;;;20.88;3.92;;;;;;;4.95;100.00;102165.88;5093306;28;20052;-79
2024/01/23 04:08:46;;;;;;;23.17;3.78;;;;;;;4.92;100.00;102166.00;5093878;28;20110;-80
2024/01/23 04:11:11;;;;;;;37.55;4.75;;;;;;;4.98;100.00;102172.78;5093656;28;20107;-79
2024/01/23 04:13:37;;;;;;;27.77;4.78;;;;;;;5.05;100.00;102176.88;5093658;28;20479;-79
2024/01/23 04:16:05;;;;;;;36.35;4.05;;;;;;;5.16;100.00;102178.16;5093881;28;20126;-79
2024/01/23 04:18:31;;;;;;;26.77;3.67;;;;;;;5.15;100.00;102182.59;5093483;28;20036;-78
2024/01/23 04:20:56;;;;;;;27.75;4.18;;;;;;;5.12;100.00;102199.41;5093139;28;20030;-78
2024/01/23 04:23:21;;;;;;;25.85;4.32;;;;;;;5.15;100.00;102203.72;5092998;28;20118;-79
2024/01/23 04:25:47;;;;;;;27.52;4.28;;;;;;;5.17;100.00;102208.91;5092423;28;20357;-80
2024/01/23 04:28:13;;;;;;;21.63;4.30;;;;;;;5.10;100.00;102198.63;5092420;28;20036;-77
2024/01/23 04:30:38;;;;;;;23.65;3.92;;;;;;;5.09;100.00;102211.88;5092928;28;20052;-79
2024/01/23 04:33:04;;;;;;;23.35;4.20;;;;;;;5.02;100.00;102218.38;5092723;28;20032;-79
2024/01/23 04:35:29;;;;;;;32.80;3.33;;;;;;;5.01;100.00;102228.06;5074673;28;20378;-79
2024/01/23 04:37:54;;;;;;;28.15;3.88;;;;;;;5.04;100.00;102221.78;5092137;28;20035;-79
2024/01/23 04:40:21;;;;;;;39.53;4.65;;;;;;;5.03;100.00;102233.25;5091554;28;20175;-81
2024/01/23 04:42:49;;;;;;;29.10;4.10;;;;;;;5.04;100.00;102241.09;5092371;28;20024;-80
2024/01/23 04:45:15;;;;;;;30.13;4.28;;;;;;;5.01;100.00;102246.53;5074042;28;20123;-81
2024/01/23 04:47:40;;;;;;;28.10;4.18;;;;;;;5.02;100.00;102242.13;5074549;28;20502;-79
2024/01/23 04:50:06;;;;;;;37.22;4.88;;;;;;;5.05;100.00;102249.91;5091602;28;20130;-79
2024/01/23 04:52:31;;;;;;;28.45;4.00;;;;;;;5.04;100.00;102259.56;5091839;28;20056;-78
2024/01/23 04:54:57;;;;;;;23.58;3.45;;;;;;;5.04;100.00;102269.28;5073970;28;20115;-79
2024/01/23 04:57:24;;;;;;;36.30;4.85;;;;;;;5.04;100.00;102264.00;5092549;28;20025;-79
2024/01/23 04:59:50;;;;;;;31.23;4.32;;;;;;;5.20;100.00;102269.47;5091884;28;20040;-79
2024/01/23 05:02:15;;;;;;;23.83;3.83;;;;;;;5.20;100.00;102282.66;5092229;28;20440;-79
2024/01/23 05:04:41;;;;;;;38.72;4.70;;;;;;;5.16;100.00;102281.06;5091680;28;20113;-79
2024/01/23 05:07:06;;;;;;;27.38;4.22;;;;;;;5.16;100.00;102275.78;5092235;28;20052;-80
2024/01/23 05:09:32;;;;;;;27.98;3.67;;;;;;;5.13;100.00;102268.88;5092196;28;20032;-79
2024/01/23 05:11:58;;;;;;;25.38;4.00;;;;;;;5.15;100.00;102274.06;5092262;28;20328;-79
2024/01/23 05:14:23;;;;;;;31.67;3.83;;;;;;;5.14;100.00;102267.09;5061175;28;20408;-78
2024/01/23 05:16:48;;;;;;;28.13;4.78;;;;;;;5.17;100.00;102288.91;5096096;28;20052;-79
2024/01/23 05:19:14;;;;;;;30.63;4.65;;;;;;;5.11;100.00;102281.28;5095604;28;20028;-79
2024/01/23 05:21:40;;;;;;;19.92;3.55;;;;;;;5.08;100.00;102270.88;5095692;28;20032;-79
2024/01/23 05:24:05;;;;;;;22.48;3.75;;;;;;;5.08;100.00;102289.34;5095580;28;20334;-78
2024/01/23 05:26:31;;;;;;;33.65;3.45;;;;;;;5.10;100.00;102296.22;5094964;28;20395;-80
2024/01/23 05:28:56;;;;;;;29.00;4.60;;;;;;;5.15;100.00;102301.34;5095354;28;20040;-82
2024/01/23 05:31:21;;;;;;;29.33;4.47;;;;;;;5.18;100.00;102309.13;5095432;28;20544;-80
2024/01/23 05:33:47;;;;;;;25.10;3.63;;;;;;;5.17;100.00;102312.66;5095446;28;20157;-79
2024/01/23 05:36:12;;;;;;;16.27;3.13;;;;;;;5.18;100.00;102310.88;5095081;28;20032;-79
2024/01/23 05:38:37;;;;;;;32.15;5.20;;;;;;;5.17;100.00;102312.66;5077373;28;20062;-79
2024/01/23 05:41:03;;;;;;;36.97;4.53;;;;;;;5.21;100.00;102310.75;5095382;28;20119;-79
2024/01/23 05:43:29;;;;;;;23.05;3.25;;;;;;;5.17;100.00;102310.03;5095283;28;20452;-78
2024/01/23 05:45:54;;;;;;;24.40;4.13;;;;;;;5.13;100.00;102313.72;5076481;28;20028;-80
2024/01/23 05:48:19;;;;;;;27.92;4.78;;;;;;;5.18;100.00;102316.16;5077112;28;20032;-79
2024/01/23 05:50:45;;;;;;;25.88;4.00;;;;;;;5.14;100.00;102341.00;5076492;28;20028;-81
2024/01/23 05:53:10;;;;;;;29.88;4.40;;;;;;;5.15;100.00;102340.03;5077134;28;20032;-79
2024/01/23 05:55:36;;;;;;;28.75;5.35;;;;;;;5.15;100.00;102347.94;5094938;28;20043;-83
2024/01/23 05:58:01;;;;;;;27.70;4.28;;;;;;;5.14;100.00;102344.47;5094613;28;20036;-81
2024/01/23 06:00:26;;;;;;;35.58;4.25;;;;;;;5.08;100.00;102352.66;5094748;28;20388;-81
2024/01/23 06:02:52;;;;;;;25.38;4.85;;;;;;;5.06;100.00;102346.56;5094888;28;20032;-81
2024/01/23 06:05:19;;;;;;;17.13;3.50;;;;;;;5.10;100.00;102349.00;5076063;28;20365;-81
2024/01/23 06:07:49;;;;;;;24.15;4.05;;;;;;;5.13;100.00;102358.56;5094765;28;20109;-81
2024/01/23 06:10:15;;;;;;;30.63;4.70;;;;;;;5.10;100.00;102366.63;5076930;28;20028;-80
2024/01/23 06:12:41;;;;;;;28.45;4.13;;;;;;;5.00;100.00;102350.34;5094438;28;20027;-82
2024/01/23 06:15:07;;;;;;;36.72;4.85;;;;;;;5.02;100.00;102352.94;5094620;28;20036;-79
2024/01/23 06:17:32;;;;;;;26.00;3.85;;;;;;;5.04;100.00;102370.38;5076365;28;20380;-79
2024/01/23 06:19:57;;;;;;;36.05;4.55;;;;;;;5.10;100.00;102370.13;5094561;28;20035;-81
2024/01/23 06:22:23;;;;;;;30.63;4.15;;;;;;;5.08;100.00;102376.41;5094424;28;20046;-81
2024/01/23 06:25:02;;;;;;;32.08;4.85;;;;;;;5.06;100.00;102368.56;5093814;28;20028;-80
2024/01/23 06:27:27;;;;;;;23.83;4.20;;;;;;;5.08;100.00;102373.75;5075653;28;20145;-81
2024/01/23 06:29:53;;;;;;;21.63;3.42;;;;;;;5.11;100.00;102374.47;5094048;28;20132;-82
2024/01/23 06:32:18;;;;;;;23.42;4.30;;;;;;;5.09;100.00;102375.47;5093670;28;20040;-79
2024/01/23 06:34:44;;;;;;;28.17;5.22;;;;;;;5.08;100.00;102379.88;5093531;28;20070;-79
2024/01/23 06:37:09;;;;;;;25.88;4.15;;;;;;;5.03;100.00;102381.00;5093371;28;20024;-80
2024/01/23 06:39:34;;;;;;;34.28;4.10;;;;;;;5.04;100.00;102385.38;5093645;28;20028;-79
2024/01/23 06:42:00;;;;;;;24.70;4.28;;;;;;;4.99;100.00;102395.28;5093759;28;20532;-78
2024/01/23 06:44:25;;;;;;;29.33;4.72;;;;;;;4.90;100.00;102400.00;5093127;28;20495;-79
2024/01/23 06:46:50;;;;;;;43.50;6.20;;;;;;;4.77;100.00;102407.53;5058791;28;20102;-80
2024/01/23 06:49:17;;;;;;;23.58;3.78;;;;;;;4.77;100.00;102407.53;5093040;28;20488;-79
2024/01/23 06:51:42;;;;;;;27.15;3.60;;;;;;;4.77;100.00;102404.91;5093658;28;20032;-79
2024/01/23 06:54:07;;;;;;;32.45;4.47;;;;;;;4.87;100.00;102404.56;5093621;28;20024;-79
2024/01/23 06:56:34;;;;;;;29.92;4.38;;;;;;;4.86;100.00;102408.94;5093061;28;20047;-80
2024/01/23 06:59:01;;;;;;;30.58;4.22;;;;;;;4.80;100.00;102417.13;5093588;28;20032;-80
2024/01/23 07:01:26;;;;;;;31.50;4.38;;;;;;;4.79;100.00;102411.91;5093605;28;20032;-81
2024/01/23 07:03:52;;;;;;;30.85;4.18;;;;;;;4.76;100.00;102404.97;5075033;28;20039;-81
2024/01/23 07:06:17;;;;;;;37.38;6.07;;;;;;;4.75;100.00;102412.03;5093890;28;20056;-81
2024/01/23 07:08:43;;;;;;;38.78;5.57;;;;;;;4.74;100.00;102406.81;5093356;28;20047;-80
2024/01/23 07:11:08;;;;;;;29.83;4.75;;;;;;;4.71;100.00;102409.59;5093276;28;20129;-80
2024/01/23 07:13:34;;;;;;;29.25;4.18;;;;;;;4.68;100.00;102417.63;5093300;28;20024;-81
2024/01/23 07:15:59;;;;;;;35.00;5.93;;;;;;;4.70;100.00;102413.13;5093568;28;20032;-82
2024/01/23 07:18:24;;;;;;;33.55;5.85;;;;;;;4.72;100.00;102409.53;5093275;28;20067;-83
2024/01/23 07:20:50;;;;;;;30.00;5.13;;;;;;;4.70;100.00;102414.00;5093437;28;20036;-82
2024/01/23 07:23:15;;;;;;;25.48;4.43;;;;;;;4.74;100.00;102417.38;5093323;28;20152;-82
2024/01/23 07:25:41;;;;;;;25.55;4.35;;;;;;;4.69;100.00;102403.53;5093165;28;20122;-82
2024/01/23 07:28:06;;;;;;;29.88;4.00;;;;;;;4.65;100.00;102405.41;5093550;28;20028;-81
2024/01/23 07:30:32;;;;;;;45.72;5.13;;;;;;;4.59;100.00;102406.50;5093185;28;20035;-81
2024/01/23 07:32:57;;;;;;;41.45;4.47;;;;;;;4.53;100.00;102398.84;5093618;28;20039;-80
2024/01/23 07:35:22;;;;;;;31.73;4.65;;;;;;;4.49;100.00;102402.53;5093602;28;20040;-82
2024/01/23 07:37:50;;;;;;;35.95;4.50;;;;;;;4.49;100.00;102417.50;5092759;28;20032;-81
2024/01/23 07:40:15;;;;;;;49.63;6.18;;;;;;;4.37;100.00;102417.09;5092977;28;20476;-81
2024/01/23 07:42:40;;;;;;;30.38;4.45;;;;;;;4.26;100.00;102428.94;5093010;28;20040;-81
2024/01/23 07:45:06;;;;;;;26.60;4.43;;;;;;;4.16;100.00;102437.19;5093035;28;20448;-81
2024/01/23 07:47:31;;;;;;;32.13;4.88;;;;;;;4.11;100.00;102435.66;5092747;28;20074;-81
2024/01/23 07:49:57;;;;;;;27.33;5.45;;;;;;;4.11;100.00;102441.78;5092698;28;20028;-81
2024/01/23 07:52:22;;;;;;;25.80;4.22;;;;;;;4.13;100.00;102441.72;5092715;28;20051;-81
2024/01/23 07:54:48;;;;;;;37.13;5.55;;;;;;;4.13;100.00;102447.84;5093195;28;20036;-81
2024/01/23 07:57:13;;;;;;;27.85;4.13;;;;;;;4.15;100.00;102453.06;5092671;28;20400;-81
2024/01/23 07:59:40;;;;;;;34.50;5.18;;;;;;;4.16;100.00;102465.31;5074038;28;20151;-81
2024/01/23 08:02:06;;;;;;;31.08;4.47;;;;;;;4.12;100.00;102474.25;5093599;28;20085;-81
2024/01/23 08:04:31;;;;;;;42.40;5.07;;;;;;;4.09;100.00;102477.88;5093062;28;20410;-81
2024/01/23 08:06:57;;;;;;;25.92;4.47;;;;;;;4.09;100.00;102493.69;5074736;28;20040;-81
2024/01/23 08:09:22;;;;;;;35.28;4.90;;;;;;;4.11;100.00;102501.53;5092231;28;20115;-81
2024/01/23 08:11:49;;;;;;;37.17;4.70;;;;;;;4.16;100.00;102508.31;5074258;28;20039;-81
2024/01/23 08:14:14;;;;;;;37.92;5.28;;;;;;;4.25;100.00;102515.03;5092366;28;20036;-81
2024/01/23 08:16:43;;;;;;;28.52;4.60;;;;;;;4.30;100.00;102522.75;5092554;28;20038;-82
2024/01/23 08:19:09;;;;;;;35.13;4.00;;;;;;;4.29;100.00;102528.97;5092488;28;20070;-81
2024/01/23 08:21:34;;;;;;;32.13;4.03;;;;;;;4.32;100.00;102528.84;5092761;28;20122;-82
2024/01/23 08:24:00;;;;;;;29.42;4.65;;;;;;;4.39;100.00;102535.63;5092308;28;20028;-82
2024/01/23 08:26:25;;;;;;;40.20;5.70;;;;;;;4.40;100.00;102532.03;5092200;28;20451;-82
2024/01/23 08:28:50;;;;;;;34.78;5.22;;;;;;;4.41;100.00;102536.41;5092179;28;20108;-81
2024/01/23 08:31:16;;;;;;;28.45;5.22;;;;;;;4.38;100.00;102541.81;5092489;28;20032;-83
2024/01/23 08:33:43;;;;;;;25.63;4.93;;;;;;;4.38;100.00;102545.28;5074267;28;20089;-81
2024/01/23 08:36:09;;;;;;;29.02;5.32;;;;;;;4.39;100.00;102547.00;5092433;28;20063;-83
2024/01/23 08:38:34;;;;;;;33.75;4.88;;;;;;;4.40;100.00;102554.00;5092341;28;20040;-84
2024/01/23 08:40:59;;;;;;;45.42;5.47;;;;;;;4.41;100.00;102557.50;5096479;28;20038;-84
2024/01/23 08:43:25;;;;;;;33.22;4.97;;;;;;;4.48;100.00;102561.63;5092447;28;20460;-83
2024/01/23 08:45:50;;;;;;;40.88;5.55;;;;;;;4.57;100.00;102560.44;5091649;28;20464;-81
2024/01/23 08:48:21;;;;;;;34.92;4.85;;;;;;;4.65;100.00;102563.63;5077774;28;20038;-83
2024/01/23 08:50:46;;;;;;;35.03;5.18;;;;;;;4.73;100.00;102558.03;5097332;28;20168;-83
2024/01/23 08:53:12;;;;;;;32.90;4.32;;;;;;;4.76;100.00;102564.09;5096830;28;20114;-83
2024/01/23 08:55:37;;;;;;;34.92;4.78;;;;;;;4.80;100.00;102563.97;5096170;28;20043;-83
2024/01/23 08:58:03;;;;;;;30.33;4.75;;;;;;;4.82;100.00;102560.34;5096511;28;20039;-82
2024/01/23 09:00:28;;;;;;;40.97;6.28;;;;;;;4.87;100.00;102566.28;5078129;28;20028;-81
2024/01/23 09:02:54;;;;;;;34.53;4.88;;;;;;;4.90;100.00;102560.91;5096323;28;20028;-81
2024/01/23 09:05:19;;;;;;;29.85;4.60;;;;;;;4.92;100.00;102552.91;5064398;28;20113;-82
2024/01/23 09:07:44;;;;;;;29.88;4.57;;;;;;;4.95;100.00;102552.78;5084264;28;20116;-83
2024/01/23 09:10:10;;;;;;;33.40;4.50;;;;;;;4.95;100.00;102552.78;5099638;28;20115;-83
2024/01/23 09:12:36;;;;;;;40.45;5.45;;;;;;;4.99;100.00;102549.13;5091932;28;20040;-82
2024/01/23 09:15:04;;;;;;;36.58;5.22;;;;;;;5.04;100.00;102551.56;5107887;28;20410;-83
2024/01/23 09:17:30;;;;;;;38.10;5.65;;;;;;;5.08;100.00;102543.47;5104614;28;20055;-80
2024/01/23 09:19:55;;;;;;;32.45;4.90;;;;;;;5.15;100.00;102548.50;5105730;28;20111;-82
2024/01/23 09:22:20;;;;;;;50.05;6.45;;;;;;;5.26;100.00;102554.22;5078603;28;20044;-83
2024/01/23 09:24:46;;;;;;;34.60;4.95;;;;;;;5.36;100.00;102549.41;5060836;28;20025;-82
2024/01/23 09:27:11;;;;;;;34.90;4.60;;;;;;;5.48;100.00;102541.84;5095386;28;20020;-81
2024/01/23 09:29:37;;;;;;;29.73;4.88;;;;;;;5.62;100.00;102554.44;5076762;28;20460;-81
2024/01/23 09:32:03;;;;;;;34.60;4.68;;;;;;;5.70;100.00;102559.41;5095543;28;20028;-83
2024/01/23 09:34:28;;;;;;;35.25;5.32;;;;;;;5.77;100.00;102555.59;5095517;28;20066;-84
2024/01/23 09:36:54;;;;;;;37.80;6.05;;;;;;;5.81;100.00;102546.63;5077672;28;20039;-83
2024/01/23 09:39:19;;;;;;;39.15;6.57;;;;;;;5.89;100.00;102548.91;5096481;28;20136;-85
2024/01/23 09:41:49;;;;;;;37.67;5.47;;;;;;;5.96;100.00;102545.09;5095994;28;20063;-84
2024/01/23 09:44:15;;;;;;;28.17;4.80;;;;;;;6.07;100.00;102543.78;5095404;28;20138;-84
2024/01/23 09:46:43;;;;;;;35.38;5.75;;;;;;;6.14;100.00;102548.72;5095351;28;20495;-86
2024/01/23 09:49:09;;;;;;;37.17;5.05;;;;;;;6.21;100.00;102540.53;5095872;28;20492;-86
2024/01/23 09:51:41;;;;;;;29.00;5.00;;;;;;;6.21;100.00;102551.09;5095477;28;20035;-85
2024/01/23 09:54:10;;;;;;;39.13;5.85;;;;;;;6.22;100.00;102564.25;5095489;28;20068;-85
2024/01/23 09:56:37;;;;;;;38.15;4.90;;;;;;;6.23;100.00;102560.69;5095589;28;20383;-85
2024/01/23 09:59:03;;;;;;;24.80;4.40;;;;;;;6.29;100.00;102562.19;5095577;28;20036;-85
2024/01/23 10:01:29;;;;;;;31.48;5.00;;;;;;;6.33;100.00;102540.84;5096077;28;20124;-86
2024/01/23 10:03:57;;;;;;;38.53;4.85;;;;;;;6.45;100.00;102549.13;5095246;28;20070;-84
2024/01/23 10:06:23;;;;;;;26.42;4.35;;;;;;;6.53;100.00;102549.63;5094601;28;20100;-84
2024/01/23 10:08:48;;;;;;;28.88;4.10;;;;;;;6.69;100.00;102550.63;5077441;28;20477;-85
2024/01/23 10:11:14;;;;;;;22.58;3.92;;;;;;;6.70;100.00;102555.00;5095344;28;20055;-84
2024/01/23 10:13:42;;;;;;;35.30;4.53;;;;;;;6.74;100.00;102552.22;5077176;28;20028;-85
2024/01/23 10:16:07;;;;;;;28.05;4.47;;;;;;;6.78;100.00;102548.50;5095282;28;20494;-84
2024/01/23 10:18:32;;;;;;;25.30;4.82;;;;;;;6.93;100.00;102547.75;5095036;28;20116;-81
2024/01/23 10:20:58;;;;;;;31.77;4.57;;;;;;;7.00;100.00;102541.25;5095273;28;20129;-85
2024/01/23 10:23:24;;;;;;;31.88;4.53;;;;;;;7.07;100.00;102536.50;5095397;28;20024;-83
2024/01/23 10:25:49;;;;;;;21.67;4.05;;;;;;;7.05;100.00;102544.50;5095084;28;20384;-86
2024/01/23 10:28:15;;;;;;;27.83;4.20;;;;;;;7.09;100.00;102531.13;5094986;28;20039;-85
2024/01/23 10:30:41;;;;;;;28.70;4.25;;;;;;;7.10;100.00;102535.50;5094646;28;20131;-84
2024/01/23 10:33:08;;;;;;;31.13;4.38;;;;;;;7.10;100.00;102536.34;5094482;28;20036;-84
2024/01/23 10:35:33;;;;;;;25.30;4.13;;;;;;;7.31;100.00;102530.94;5076811;28;20028;-85
2024/01/23 10:38:03;;;;;;;29.27;3.83;;;;;;;7.53;100.00;102520.97;5076167;28;20380;-85
2024/01/23 10:40:29;;;;;;;22.95;3.50;;;;;;;7.75;100.00;102528.69;5076173;28;20058;-84
2024/01/23 10:42:59;;;;;;;24.75;4.10;;;;;;;7.93;100.00;102533.97;5094604;28;20036;-85
2024/01/23 10:45:25;;;;;;;24.80;4.15;;;;;;;8.00;100.00;102532.72;5075969;28;20036;-85
2024/01/23 10:47:57;;;;;;;29.35;3.92;;;;;;;7.90;100.00;102524.38;5076404;28;20357;-85
2024/01/23 10:50:22;;;;;;;27.13;3.97;;;;;;;7.87;100.00;102515.75;5094204;28;20528;-85
2024/01/23 10:52:49;;;;;;;31.08;5.22;;;;;;;7.93;100.00;102512.75;5094154;28;20052;-85
2024/01/23 10:55:18;;;;;;;19.20;3.58;;;;;;;8.09;100.00;102491.56;5094079;28;20047;-84
2024/01/23 10:57:48;;;;;;;29.38;4.20;;;;;;;7.99;100.00;102479.78;5094224;28;20029;-84
2024/01/23 11:00:18;;;;;;;23.02;4.50;;;;;;;7.92;100.00;102472.13;5094286;28;20393;-85
2024/01/23 11:02:50;;;;;;;21.90;3.63;;;;;;;7.94;100.00;102467.63;5093921;28;20039;-83
2024/01/23 11:05:20;;;;;;;31.63;4.13;;;;;;;7.97;100.00;102485.13;5093134;28;20067;-83
2024/01/23 11:07:55;;;;;;;31.77;4.10;;;;;;;7.89;100.00;102479.41;5093866;28;20039;-82
2024/01/23 11:10:24;;;;;;;32.55;3.95;;;;;;;7.85;100.00;102472.53;5074353;28;20398;-82